Destinations Luxembourg-Findel International Airport

Luxembourg-Findel International Airport (ELLX / LUX)

Flights to Luxembourg-Findel International Airport

Flight number From ETE Dispatch
SPY-001 EHGG Groningen Airport Eelde 01:15

Flights from Luxembourg-Findel International Airport

Flight number To ETE Dispatch
SPY-002 EHGG Groningen Airport Eelde
About

Luxembourg-Findel International Airport facts

Luxembourg-Findel International Airport is located in Luxemburg at an elevation of 376.1 meters or 1234 feet.

Currently, Speedy Airlines serves 2 flights to and from Luxembourg-Findel International Airport.

Detailed airport info

Route map

Weather

Current weather

METAR

METAR

Metar data retrieved Sunday, 21 July 2024 at 18:55 UTC

ELLX 211820Z 28007KT 9999 VCSH FEW045TCU BKN050 23/16 Q1011 NOSIG
Wind Temperature
7 kt 23c